Time;durP1;ratioP1;P1;durP2;ratioP2;P2;SDS_P1;SDS_P2;PMS_P1;PMS_P2;Temp;Humidity;BMP_temperature;BMP_pressure;BME280_temperature;BME280_humidity;BME280_pressure;Samples;Min_cycle;Max_cycle;Signal;HPM_P1;HPM_P2
2021/03/14 00:01:26;;;;;;;17.40;8.68;;;;;;;4.74;72.01;99796.59;1707262;83;21468;-64
2021/03/14 00:03:54;;;;;;;15.95;8.93;;;;;;;4.74;71.97;99796.09;1707295;83;21409;-63
2021/03/14 00:06:21;;;;;;;15.13;8.83;;;;;;;4.75;71.98;99795.06;1707195;83;21458;-64
2021/03/14 00:08:48;;;;;;;16.07;8.75;;;;;;;4.70;72.00;99784.40;1707160;83;21534;-63
2021/03/14 00:11:17;;;;;;;14.95;8.95;;;;;;;4.68;72.07;99783.73;1707113;84;21130;-63
2021/03/14 00:13:46;;;;;;;14.07;8.10;;;;;;;4.66;72.13;99781.70;1707127;83;21388;-64
2021/03/14 00:16:13;;;;;;;17.17;8.43;;;;;;;4.66;72.14;99783.05;1707145;83;21340;-64
2021/03/14 00:18:42;;;;;;;17.98;8.68;;;;;;;4.65;72.07;99782.22;1707443;83;21170;-65
2021/03/14 00:21:11;;;;;;;15.15;8.28;;;;;;;4.67;72.05;99783.39;1707153;83;21896;-63
2021/03/14 00:23:38;;;;;;;16.48;8.80;;;;;;;4.64;72.02;99776.96;1707272;83;22001;-62
2021/03/14 00:26:07;;;;;;;15.48;8.20;;;;;;;4.61;72.04;99774.09;1707304;83;21165;-63
2021/03/14 00:28:35;;;;;;;16.23;9.25;;;;;;;4.59;72.10;99767.99;1707154;83;21356;-64
2021/03/14 00:31:02;;;;;;;17.23;9.15;;;;;;;4.59;72.14;99765.28;1707206;83;21271;-63
2021/03/14 00:33:30;;;;;;;14.20;8.23;;;;;;;4.57;72.11;99761.89;1707347;83;21462;-63
2021/03/14 00:35:58;;;;;;;15.88;8.25;;;;;;;4.56;72.14;99768.34;1707178;83;21411;-64
2021/03/14 00:38:25;;;;;;;17.02;8.73;;;;;;;4.52;72.14;99766.97;1707245;83;21376;-63
2021/03/14 00:40:53;;;;;;;13.38;8.55;;;;;;;4.53;72.15;99765.94;1707239;84;21209;-63
2021/03/14 00:43:21;;;;;;;15.18;8.50;;;;;;;4.53;72.15;99768.66;1707327;83;21172;-63
2021/03/14 00:45:48;;;;;;;15.80;8.50;;;;;;;4.51;72.17;99774.77;1707441;84;21156;-64
2021/03/14 00:48:18;;;;;;;14.53;8.43;;;;;;;4.49;72.20;99771.89;1705308;83;21900;-62
2021/03/14 00:50:46;;;;;;;15.83;8.78;;;;;;;4.44;72.25;99771.91;1707308;84;21289;-62
2021/03/14 00:53:15;;;;;;;16.32;8.50;;;;;;;4.41;72.30;99767.34;1706703;83;21315;-63
2021/03/14 00:55:45;;;;;;;18.00;8.55;;;;;;;4.39;72.33;99766.16;1707253;83;21158;-63
2021/03/14 00:58:13;;;;;;;16.60;8.43;;;;;;;4.39;72.35;99762.59;1707389;83;21444;-63
2021/03/14 01:00:41;;;;;;;15.55;8.75;;;;;;;4.38;72.39;99767.17;1707282;84;21336;-62
2021/03/14 01:03:09;;;;;;;13.85;8.30;;;;;;;4.36;72.42;99762.95;1707325;83;21292;-63
2021/03/14 01:05:39;;;;;;;15.15;8.83;;;;;;;4.33;72.46;99768.20;1707137;84;21478;-63
2021/03/14 01:08:08;;;;;;;17.05;8.65;;;;;;;4.32;72.56;99762.45;1707199;84;21221;-63
2021/03/14 01:10:36;;;;;;;16.32;8.50;;;;;;;4.32;72.58;99779.22;1707077;83;21156;-62
2021/03/14 01:13:04;;;;;;;15.70;8.50;;;;;;;4.32;72.54;99761.09;1682746;84;21324;-62
2021/03/14 01:15:33;;;;;;;17.00;8.70;;;;;;;4.31;72.55;99763.97;1707217;83;21181;-62
2021/03/14 01:18:01;;;;;;;14.93;8.10;;;;;;;4.30;72.55;99759.57;1707311;84;21138;-62
2021/03/14 01:20:29;;;;;;;16.93;8.83;;;;;;;4.27;72.62;99759.91;1707244;83;21142;-63
2021/03/14 01:22:56;;;;;;;13.22;7.65;;;;;;;4.25;72.69;99760.59;1707323;83;21133;-62
2021/03/14 01:25:23;;;;;;;16.87;8.45;;;;;;;4.22;72.78;99759.08;1707287;83;21372;-63
2021/03/14 01:27:53;;;;;;;14.38;8.30;;;;;;;4.21;72.82;99756.55;1707305;83;21298;-64
2021/03/14 01:30:21;;;;;;;16.20;8.68;;;;;;;4.19;72.88;99758.58;1707346;84;21908;-63
2021/03/14 01:32:49;;;;;;;15.80;8.43;;;;;;;4.15;72.95;99755.36;1707287;83;21193;-63
2021/03/14 01:35:18;;;;;;;16.20;8.53;;;;;;;4.16;73.02;99756.21;1707277;83;21164;-62
2021/03/14 01:37:45;;;;;;;13.78;8.45;;;;;;;4.16;73.14;99752.14;1707044;84;21173;-62
2021/03/14 01:40:16;;;;;;;15.88;9.03;;;;;;;4.16;73.18;99742.14;1707051;83;21444;-62
2021/03/14 01:42:45;;;;;;;13.98;8.35;;;;;;;4.16;73.18;99743.50;1707240;84;21222;-62
2021/03/14 01:45:13;;;;;;;14.40;8.15;;;;;;;4.13;73.22;99743.84;1707349;83;21192;-64
2021/03/14 01:47:47;;;;;;;14.50;8.25;;;;;;;4.08;73.26;99738.95;1707179;83;21380;-63
2021/03/14 01:50:25;;;;;;;15.15;8.40;;;;;;;4.07;73.30;99740.47;1707216;84;21377;-62
2021/03/14 01:52:53;;;;;;;17.55;8.85;;;;;;;4.04;73.37;99745.73;1707467;83;21177;-62
2021/03/14 01:55:23;;;;;;;16.37;8.80;;;;;;;4.02;73.48;99737.44;1683373;83;21216;-63
2021/03/14 01:57:53;;;;;;;16.62;9.15;;;;;;;3.99;73.54;99737.27;1707290;83;21830;-63
2021/03/14 02:00:23;;;;;;;14.75;8.23;;;;;;;3.98;73.61;99742.86;1707234;83;21822;-64
2021/03/14 02:02:51;;;;;;;14.70;8.00;;;;;;;3.96;73.65;99747.09;1707295;83;21177;-64
2021/03/14 02:05:19;;;;;;;14.73;8.90;;;;;;;3.92;73.68;99746.25;1707219;83;21166;-63
2021/03/14 02:07:52;;;;;;;14.07;8.90;;;;;;;3.87;73.74;99751.31;1707228;84;21176;-63
2021/03/14 02:10:28;;;;;;;13.62;8.50;;;;;;;3.84;73.90;99755.20;1707300;83;21435;-63
2021/03/14 02:13:18;;;;;;;14.83;8.73;;;;;;;3.82;74.06;99752.67;1707804;83;21291;-62
2021/03/14 02:16:04;;;;;;;16.10;9.13;;;;;;;3.79;74.15;99755.72;1708980;82;21427;-62
2021/03/14 02:18:33;;;;;;;17.27;8.80;;;;;;;3.76;74.24;99761.98;1709261;84;21237;-63
2021/03/14 02:21:00;;;;;;;15.98;8.78;;;;;;;3.75;74.28;99769.77;1709058;82;21468;-63
2021/03/14 02:23:56;;;;;;;16.23;8.53;;;;;;;3.74;74.33;99766.73;1709036;84;21396;-63
2021/03/14 02:26:40;;;;;;;16.37;8.70;;;;;;;3.75;74.46;99764.36;1708971;83;21571;-64
2021/03/14 02:29:17;;;;;;;16.50;8.65;;;;;;;3.76;74.50;99762.83;1709105;84;21204;-62
2021/03/14 02:31:46;;;;;;;14.63;8.40;;;;;;;3.73;74.39;99771.30;1709058;83;21255;-62
2021/03/14 02:34:16;;;;;;;16.37;8.03;;;;;;;3.68;74.45;99765.54;1709046;83;21226;-63
2021/03/14 02:36:44;;;;;;;16.95;8.50;;;;;;;3.65;74.52;99760.97;1709004;83;21432;-65
2021/03/14 02:39:16;;;;;;;15.08;7.97;;;;;;;3.64;74.64;99770.11;1708995;83;21169;-63
2021/03/14 02:41:43;;;;;;;18.45;9.45;;;;;;;3.64;74.77;99760.13;1709025;82;21271;-63
2021/03/14 02:44:13;;;;;;;11.30;7.67;;;;;;;3.64;74.81;99760.62;1708896;82;21159;-62
2021/03/14 02:46:42;;;;;;;13.45;8.38;;;;;;;3.62;74.88;99755.38;1677216;84;21906;-62
2021/03/14 02:49:10;;;;;;;15.55;9.48;;;;;;;3.60;74.92;99765.53;1708860;83;21175;-62
2021/03/14 02:51:39;;;;;;;15.13;8.28;;;;;;;3.59;75.04;99769.27;1708984;83;21360;-62
2021/03/14 02:54:07;;;;;;;20.12;9.30;;;;;;;3.59;75.02;99763.00;1709048;82;21467;-64
2021/03/14 02:56:36;;;;;;;17.17;9.15;;;;;;;3.57;75.00;99774.51;1708859;84;21168;-64
2021/03/14 02:59:03;;;;;;;15.95;8.65;;;;;;;3.52;75.06;99769.59;1676843;84;21415;-63
2021/03/14 03:01:31;;;;;;;15.68;9.08;;;;;;;3.50;75.13;99771.12;1709251;83;21443;-63
2021/03/14 03:03:59;;;;;;;20.97;9.55;;;;;;;3.48;75.21;99775.86;1709029;83;21204;-63
2021/03/14 03:06:29;;;;;;;16.77;10.05;;;;;;;3.45;75.35;99774.84;1709145;83;21169;-63
2021/03/14 03:08:57;;;;;;;19.87;10.00;;;;;;;3.41;75.51;99774.83;1709227;83;21165;-63
2021/03/14 03:11:24;;;;;;;22.52;9.98;;;;;;;3.39;75.58;99769.24;1709216;83;21216;-63
2021/03/14 03:13:53;;;;;;;16.35;9.35;;;;;;;3.40;75.65;99769.08;1709097;83;21177;-64
2021/03/14 03:16:21;;;;;;;16.07;9.70;;;;;;;3.43;75.71;99763.83;1709153;83;21164;-63
2021/03/14 03:18:49;;;;;;;18.25;10.72;;;;;;;3.39;75.69;99767.38;1709070;83;21284;-63
2021/03/14 03:21:16;;;;;;;19.67;10.05;;;;;;;3.37;75.86;99773.47;1709122;82;21188;-63
2021/03/14 03:23:44;;;;;;;19.70;11.55;;;;;;;3.37;75.91;99777.53;1709133;84;21477;-63
2021/03/14 03:26:11;;;;;;;23.20;12.10;;;;;;;3.37;76.06;99782.95;1713696;82;21142;-62
2021/03/14 03:28:38;;;;;;;22.65;11.80;;;;;;;3.38;76.06;99775.67;1713963;81;21173;-64
2021/03/14 03:31:06;;;;;;;25.60;13.00;;;;;;;3.38;76.08;99777.88;1713672;83;21132;-63
2021/03/14 03:33:33;;;;;;;22.85;12.37;;;;;;;3.41;76.13;99778.89;1713650;84;21133;-63
2021/03/14 03:36:01;;;;;;;25.15;12.58;;;;;;;3.39;76.14;99771.95;1713720;83;21228;-63
2021/03/14 03:38:32;;;;;;;26.77;13.50;;;;;;;3.36;76.26;99775.84;1713651;84;21142;-64
2021/03/14 03:41:00;;;;;;;22.55;12.63;;;;;;;3.36;76.39;99771.78;1713794;83;21157;-63
2021/03/14 03:43:35;;;;;;;28.10;13.55;;;;;;;3.34;76.48;99765.68;1713681;84;21153;-63
2021/03/14 03:46:08;;;;;;;34.35;14.05;;;;;;;3.33;76.53;99766.70;1713704;83;21142;-63
2021/03/14 03:48:48;;;;;;;28.35;14.20;;;;;;;3.32;76.58;99770.42;1713717;83;21145;-63
2021/03/14 03:51:19;;;;;;;27.30;13.58;;;;;;;3.31;76.69;99753.83;1713666;83;21177;-63
2021/03/14 03:53:46;;;;;;;29.70;15.13;;;;;;;3.29;76.86;99755.86;1713213;83;21130;-63
2021/03/14 03:59:38;;;;;;;32.10;15.43;;;;;;;3.30;77.09;99747.23;1843623;77;22406;-63
2021/03/14 04:02:06;;;;;;;30.57;14.13;;;;;;;3.23;77.18;99752.44;1815937;79;21567;-64
2021/03/14 04:04:34;;;;;;;35.03;15.98;;;;;;;3.22;77.26;99746.68;1749455;82;21205;-63
2021/03/14 04:07:02;;;;;;;36.60;15.90;;;;;;;3.21;77.31;99746.34;1749430;82;21177;-62
2021/03/14 04:09:30;;;;;;;30.82;15.00;;;;;;;3.22;77.36;99743.98;1767452;81;21162;-62
2021/03/14 04:11:58;;;;;;;30.48;15.35;;;;;;;3.22;77.47;99748.03;1749846;80;21428;-63
2021/03/14 04:14:25;;;;;;;35.38;16.80;;;;;;;3.23;77.56;99747.02;1749436;81;21477;-62
2021/03/14 04:16:53;;;;;;;33.53;16.20;;;;;;;3.26;77.62;99745.88;1749432;81;21216;-62
2021/03/14 04:19:22;;;;;;;35.30;15.48;;;;;;;3.27;77.59;99740.29;1719866;82;21193;-62
2021/03/14 04:21:50;;;;;;;32.40;14.20;;;;;;;3.27;77.54;99736.73;1749596;81;21268;-61
2021/03/14 04:24:17;;;;;;;36.83;16.70;;;;;;;3.26;77.53;99733.19;1720554;81;21428;-64
2021/03/14 04:26:46;;;;;;;34.20;15.23;;;;;;;3.27;77.59;99733.52;1716211;83;21477;-62
2021/03/14 04:29:13;;;;;;;33.28;15.18;;;;;;;3.28;77.55;99738.44;1749364;81;21375;-62
2021/03/14 04:31:45;;;;;;;37.75;14.98;;;;;;;3.22;77.59;99737.72;1749446;82;21811;-62
2021/03/14 04:34:14;;;;;;;31.27;14.18;;;;;;;3.19;77.71;99727.56;1749358;81;21195;-62
2021/03/14 04:36:42;;;;;;;30.70;14.53;;;;;;;3.18;77.78;99719.10;1719889;81;21439;-62
2021/03/14 04:39:09;;;;;;;32.30;14.85;;;;;;;3.18;77.82;99728.58;1749365;81;21320;-63
2021/03/14 04:41:37;;;;;;;30.75;15.58;;;;;;;3.17;77.88;99722.82;1720077;82;21843;-62
2021/03/14 04:44:06;;;;;;;32.35;14.83;;;;;;;3.18;77.99;99729.08;1749276;81;21376;-63
2021/03/14 04:46:33;;;;;;;30.57;14.98;;;;;;;3.19;78.01;99731.63;1749374;81;21172;-62
2021/03/14 04:49:01;;;;;;;31.95;14.50;;;;;;;3.18;78.02;99730.44;1749234;82;21435;-64
2021/03/14 04:51:36;;;;;;;29.67;14.30;;;;;;;3.16;78.07;99736.02;1749568;81;21373;-62
2021/03/14 04:54:03;;;;;;;29.70;14.00;;;;;;;3.14;78.07;99743.96;1749429;82;21168;-63
2021/03/14 04:56:31;;;;;;;30.20;16.37;;;;;;;3.13;78.15;99741.76;1689508;83;21237;-64
2021/03/14 04:58:58;;;;;;;27.37;14.35;;;;;;;3.14;78.21;99742.10;1680888;83;21471;-64
2021/03/14 05:01:26;;;;;;;28.05;13.28;;;;;;;3.17;78.26;99743.13;1731180;81;21464;-64
2021/03/14 05:03:55;;;;;;;30.90;14.28;;;;;;;3.21;78.36;99741.44;1738875;80;21313;-64
2021/03/14 05:06:23;;;;;;;25.25;11.60;;;;;;;3.22;78.26;99745.33;1783291;80;21860;-64
2021/03/14 05:08:51;;;;;;;23.67;11.93;;;;;;;3.20;78.13;99746.00;1783794;80;21317;-63
2021/03/14 05:11:19;;;;;;;27.05;13.03;;;;;;;3.18;78.08;99743.97;1783231;80;21390;-63
2021/03/14 05:13:48;;;;;;;27.75;13.20;;;;;;;3.16;78.07;99743.28;1780355;80;21194;-63
2021/03/14 05:16:16;;;;;;;26.48;11.38;;;;;;;3.17;78.12;99744.48;1783135;80;21139;-63
2021/03/14 05:18:44;;;;;;;24.18;13.05;;;;;;;3.16;78.11;99746.00;1783254;80;21346;-62
2021/03/14 05:21:12;;;;;;;22.25;11.03;;;;;;;3.13;78.10;99744.47;1783264;80;21171;-63
2021/03/14 05:23:39;;;;;;;21.95;10.53;;;;;;;3.13;78.07;99751.23;1780947;80;21189;-62
2021/03/14 05:26:13;;;;;;;23.87;11.25;;;;;;;3.14;78.08;99758.34;1742884;82;21173;-62
2021/03/14 05:28:41;;;;;;;21.80;11.03;;;;;;;3.15;78.13;99760.54;1780171;80;21511;-62
2021/03/14 05:31:29;;;;;;;21.82;11.22;;;;;;;3.17;78.08;99761.22;1780126;80;21154;-62
2021/03/14 05:33:59;;;;;;;21.52;11.25;;;;;;;3.16;78.05;99771.70;1781250;80;21130;-62
2021/03/14 05:36:27;;;;;;;20.05;10.20;;;;;;;3.14;77.99;99768.31;1776578;80;21198;-63
2021/03/14 05:38:56;;;;;;;22.67;11.28;;;;;;;3.16;78.07;99766.30;1783285;80;21136;-63
2021/03/14 05:41:24;;;;;;;17.82;9.75;;;;;;;3.19;78.02;99772.73;1783173;80;21350;-63
2021/03/14 05:43:52;;;;;;;17.32;9.80;;;;;;;3.20;77.97;99766.30;1781787;80;21360;-64
2021/03/14 05:46:19;;;;;;;16.52;8.90;;;;;;;3.24;77.98;99764.11;1779873;80;21499;-63
2021/03/14 05:48:47;;;;;;;16.70;8.95;;;;;;;3.28;77.94;99757.37;1779947;80;21190;-64
2021/03/14 05:51:25;;;;;;;14.45;8.63;;;;;;;3.29;77.85;99760.43;1777146;80;21169;-63
2021/03/14 05:53:54;;;;;;;19.00;9.50;;;;;;;3.28;77.74;99766.35;1769187;80;21174;-62
2021/03/14 05:56:22;;;;;;;15.63;8.70;;;;;;;3.29;77.73;99760.43;1776018;80;21146;-63
2021/03/14 05:58:50;;;;;;;17.00;8.63;;;;;;;3.31;77.71;99763.81;1773237;80;21480;-62
2021/03/14 06:01:22;;;;;;;16.32;8.68;;;;;;;3.32;77.69;99762.30;1762596;81;21484;-64
2021/03/14 06:03:49;;;;;;;18.90;9.70;;;;;;;3.35;77.70;99758.41;1762700;81;21463;-62
2021/03/14 06:06:17;;;;;;;14.18;8.05;;;;;;;3.38;77.73;99758.08;1762753;80;21154;-64
2021/03/14 06:08:45;;;;;;;18.90;9.25;;;;;;;3.40;77.65;99759.59;1763023;80;21163;-63
2021/03/14 06:11:14;;;;;;;15.78;8.43;;;;;;;3.41;77.61;99756.38;1762780;81;21198;-62
2021/03/14 06:13:43;;;;;;;15.93;8.75;;;;;;;3.44;77.54;99758.25;1762622;81;21446;-62
2021/03/14 06:16:10;;;;;;;14.30;8.30;;;;;;;3.50;77.50;99755.38;1734342;81;21397;-63
2021/03/14 06:18:39;;;;;;;16.40;9.08;;;;;;;3.52;77.47;99749.79;1760033;81;21195;-62
2021/03/14 06:21:29;;;;;;;16.52;8.48;;;;;;;3.56;77.45;99749.80;1759996;81;21412;-63
2021/03/14 06:24:10;;;;;;;14.73;8.00;;;;;;;3.57;77.35;99746.06;1760062;81;21205;-62
2021/03/14 06:26:45;;;;;;;15.68;8.43;;;;;;;3.57;77.19;99737.95;1760159;81;21178;-64
2021/03/14 06:29:24;;;;;;;14.63;7.47;;;;;;;3.58;77.13;99751.83;1760024;81;21163;-62
2021/03/14 06:31:59;;;;;;;14.80;7.85;;;;;;;3.58;77.04;99748.61;1755340;80;21298;-65
2021/03/14 06:34:31;;;;;;;14.78;8.30;;;;;;;3.61;77.01;99744.72;1730742;81;21186;-62
2021/03/14 06:37:11;;;;;;;15.25;8.50;;;;;;;3.61;76.96;99749.63;1730973;83;21538;-63
2021/03/14 06:39:40;;;;;;;13.98;8.23;;;;;;;3.63;76.99;99748.10;1730909;81;21146;-62
2021/03/14 06:42:08;;;;;;;13.25;6.95;;;;;;;3.67;76.93;99741.33;1730878;81;21149;-62
2021/03/14 06:44:38;;;;;;;11.55;6.65;;;;;;;3.69;76.87;99746.91;1727990;81;21173;-64
2021/03/14 06:47:05;;;;;;;12.23;7.28;;;;;;;3.72;76.72;99752.50;1730942;81;21392;-64
2021/03/14 06:49:38;;;;;;;13.60;7.72;;;;;;;3.74;76.64;99749.96;1730930;81;21409;-62
2021/03/14 06:52:07;;;;;;;11.65;6.80;;;;;;;3.75;76.62;99758.43;1730947;81;21280;-63
2021/03/14 06:54:38;;;;;;;13.55;7.17;;;;;;;3.80;76.54;99752.50;1704698;83;21831;-63
2021/03/14 06:57:12;;;;;;;12.13;6.37;;;;;;;3.83;76.52;99754.87;1703373;83;21205;-63
2021/03/14 06:59:55;;;;;;;11.35;5.92;;;;;;;3.88;76.41;99758.42;1730804;82;21185;-63
2021/03/14 07:02:24;;;;;;;14.53;7.60;;;;;;;3.92;76.27;99763.36;1730886;83;21166;-62
2021/03/14 07:05:00;;;;;;;11.78;6.87;;;;;;;3.97;76.24;99760.98;1730898;81;21245;-63
2021/03/14 07:07:31;;;;;;;12.43;7.35;;;;;;;4.03;76.11;99764.87;1730909;83;21276;-62
2021/03/14 07:10:09;;;;;;;12.70;6.60;;;;;;;4.11;75.97;99770.28;1730954;81;21146;-64
2021/03/14 07:12:40;;;;;;;14.05;6.90;;;;;;;4.13;75.72;99765.03;1731311;81;21122;-63
2021/03/14 07:15:18;;;;;;;10.35;5.95;;;;;;;4.18;75.62;99771.80;1730929;81;21429;-63
2021/03/14 07:17:53;;;;;;;11.28;6.53;;;;;;;4.23;75.43;99785.68;1730926;81;21432;-63
2021/03/14 07:20:27;;;;;;;10.95;6.08;;;;;;;4.22;75.19;99779.92;1731154;81;21491;-63
2021/03/14 07:23:04;;;;;;;9.03;5.40;;;;;;;4.24;75.08;99791.44;1730889;83;21256;-62
2021/03/14 07:25:34;;;;;;;11.25;5.67;;;;;;;4.24;74.97;99795.00;1730979;83;21193;-62
2021/03/14 07:28:02;;;;;;;11.05;6.17;;;;;;;4.26;74.86;99797.03;1747486;80;21243;-62
2021/03/14 07:30:30;;;;;;;11.57;6.42;;;;;;;4.28;74.74;99805.84;1778252;80;21131;-62
2021/03/14 07:32:57;;;;;;;11.35;6.47;;;;;;;4.29;74.52;99793.97;1778259;80;21195;-63
2021/03/14 07:35:26;;;;;;;8.78;5.72;;;;;;;4.27;74.52;99792.45;1778159;80;21206;-63
2021/03/14 07:37:55;;;;;;;10.30;6.03;;;;;;;4.28;74.48;99777.88;1778210;80;21806;-64
2021/03/14 07:40:25;;;;;;;12.90;7.33;;;;;;;4.32;74.56;99786.00;1778429;80;21175;-62
2021/03/14 07:42:57;;;;;;;13.00;6.75;;;;;;;4.34;74.48;99777.19;1766540;80;21184;-62
2021/03/14 07:45:25;;;;;;;12.88;7.28;;;;;;;4.36;74.50;99767.02;1731143;80;21185;-62
2021/03/14 07:47:53;;;;;;;13.65;6.47;;;;;;;4.45;74.55;99768.68;1755943;80;21159;-62
2021/03/14 07:50:34;;;;;;;11.90;6.95;;;;;;;4.56;74.50;99774.28;1775146;80;21210;-63
2021/03/14 07:53:10;;;;;;;11.03;6.28;;;;;;;4.62;74.43;99779.84;1714913;82;21145;-62
2021/03/14 07:55:37;;;;;;;10.93;5.37;;;;;;;4.72;74.25;99784.56;1714577;83;21399;-63
2021/03/14 07:58:04;;;;;;;10.65;6.30;;;;;;;4.79;74.04;99771.14;1723445;80;22135;-64
2021/03/14 08:00:34;;;;;;;12.00;6.25;;;;;;;4.83;73.81;99772.47;1782487;80;21405;-63
2021/03/14 08:03:07;;;;;;;10.13;6.12;;;;;;;4.89;73.74;99770.41;1783401;80;21210;-62
2021/03/14 08:05:46;;;;;;;8.88;5.58;;;;;;;4.95;73.55;99770.22;1784889;80;21175;-62
2021/03/14 08:08:29;;;;;;;10.35;6.62;;;;;;;4.99;73.25;99774.27;1783384;80;21445;-62
2021/03/14 08:10:56;;;;;;;10.82;6.20;;;;;;;5.01;73.14;99765.44;1779256;80;21126;-63
2021/03/14 08:13:35;;;;;;;11.60;6.00;;;;;;;5.07;73.10;99760.65;1767524;80;21423;-63
2021/03/14 08:16:08;;;;;;;11.15;5.92;;;;;;;5.10;72.77;99758.42;1750942;82;21360;-63
2021/03/14 08:18:43;;;;;;;9.45;5.90;;;;;;;5.11;72.69;99757.91;1767804;80;21156;-64
2021/03/14 08:21:28;;;;;;;10.32;6.00;;;;;;;5.17;72.61;99749.05;1750911;82;21308;-64
2021/03/14 08:23:58;;;;;;;11.00;5.90;;;;;;;5.24;72.54;99756.84;1749673;82;21199;-63
2021/03/14 08:26:28;;;;;;;10.05;5.58;;;;;;;5.30;72.24;99744.42;1752226;82;22003;-63
2021/03/14 08:29:09;;;;;;;11.48;6.10;;;;;;;5.37;72.14;99750.31;1752941;82;21160;-62
2021/03/14 08:31:50;;;;;;;10.15;5.33;;;;;;;5.46;72.03;99757.05;1752458;82;21151;-62
2021/03/14 08:34:33;;;;;;;9.93;5.17;;;;;;;5.54;71.68;99759.70;1744189;80;21180;-62
2021/03/14 08:37:02;;;;;;;10.32;5.50;;;;;;;5.53;71.20;99762.09;1752541;80;21754;-62
2021/03/14 08:39:38;;;;;;;10.03;5.42;;;;;;;5.51;70.93;99764.98;1751238;80;21466;-63
2021/03/14 08:42:08;;;;;;;10.28;5.45;;;;;;;5.51;70.90;99769.06;1751461;80;21957;-62
2021/03/14 08:44:41;;;;;;;7.83;4.83;;;;;;;5.52;70.88;99765.31;1752533;82;21133;-62
2021/03/14 08:47:22;;;;;;;10.82;4.90;;;;;;;5.53;70.64;99770.23;1750869;80;21181;-64
2021/03/14 08:49:53;;;;;;;8.93;5.45;;;;;;;5.54;70.62;99780.08;1751984;80;21262;-64
2021/03/14 08:52:23;;;;;;;9.48;5.65;;;;;;;5.52;70.51;99776.19;1752658;82;21177;-65
2021/03/14 08:54:57;;;;;;;8.20;5.35;;;;;;;5.47;70.60;99787.27;1733318;80;21339;-63
2021/03/14 08:57:26;;;;;;;9.45;5.78;;;;;;;5.46;70.84;99780.98;1752499;80;21291;-63
2021/03/14 08:59:57;;;;;;;9.00;4.72;;;;;;;5.48;70.74;99780.80;1742866;82;21349;-71
2021/03/14 09:02:30;;;;;;;10.08;5.42;;;;;;;5.47;70.64;99798.13;1748977;80;21198;-63
2021/03/14 09:05:14;;;;;;;9.43;5.12;;;;;;;5.45;70.50;99794.74;1758264;80;21900;-65
2021/03/14 09:07:44;;;;;;;8.20;4.87;;;;;;;5.37;70.60;99795.13;1684335;83;21293;-63
2021/03/14 09:10:14;;;;;;;10.18;5.42;;;;;;;5.31;70.73;99789.56;1752034;80;21146;-63
2021/03/14 09:13:00;;;;;;;8.68;5.25;;;;;;;5.25;70.90;99784.85;1747210;80;21263;-62
2021/03/14 09:15:35;;;;;;;9.05;4.97;;;;;;;5.22;71.16;99782.49;1761280;80;21155;-60
2021/03/14 09:18:14;;;;;;;7.05;4.80;;;;;;;5.24;71.23;99778.58;1744767;80;21202;-63
2021/03/14 09:20:42;;;;;;;7.78;4.87;;;;;;;5.26;71.36;99779.75;1683845;85;21285;-61
2021/03/14 09:23:13;;;;;;;9.18;5.72;;;;;;;5.27;71.37;99779.58;1741827;81;21858;-67
2021/03/14 09:25:52;;;;;;;8.65;4.70;;;;;;;5.26;71.39;99777.04;1758189;80;21820;-64
2021/03/14 09:28:20;;;;;;;9.45;5.03;;;;;;;5.30;71.51;99771.58;1758545;80;21845;-61
2021/03/14 09:30:49;;;;;;;9.30;4.70;;;;;;;5.35;71.48;99761.87;1775126;80;21270;-61
2021/03/14 09:33:17;;;;;;;9.30;5.17;;;;;;;5.44;71.42;99759.09;1757273;80;21164;-62
2021/03/14 09:35:47;;;;;;;6.83;4.33;;;;;;;5.49;71.23;99752.09;1732720;80;21980;-68
2021/03/14 09:38:16;;;;;;;7.83;4.67;;;;;;;5.55;70.95;99757.31;1728632;80;21244;-66
2021/03/14 09:40:48;;;;;;;8.33;4.87;;;;;;;5.58;70.80;99750.16;1765601;80;21147;-62
2021/03/14 09:43:28;;;;;;;8.95;4.85;;;;;;;5.62;70.76;99740.62;1763990;80;21200;-61
2021/03/14 09:46:08;;;;;;;7.62;4.53;;;;;;;5.69;70.72;99742.42;1769376;80;21867;-67
2021/03/14 09:48:46;;;;;;;9.20;5.05;;;;;;;5.80;70.67;99740.30;1705294;81;21197;-64
2021/03/14 09:51:18;;;;;;;10.25;5.35;;;;;;;5.88;70.54;99743.82;1728625;80;21889;-62
2021/03/14 09:53:47;;;;;;;8.65;5.53;;;;;;;5.97;70.28;99747.34;1740434;81;21380;-67
2021/03/14 09:56:19;;;;;;;10.20;5.53;;;;;;;6.01;70.17;99741.86;1737224;80;21185;-68
2021/03/14 09:59:07;;;;;;;;;;;;;;;6.08;69.87;99744.17;1730949;83;21955;-61
2021/03/14 10:01:50;;;;;;;9.80;5.35;;;;;;;6.12;69.57;99744.13;1727560;81;20309;-60
2021/03/14 10:04:18;;;;;;;10.43;5.87;;;;;;;6.18;69.36;99744.75;1736140;80;21232;-60
2021/03/14 10:06:49;;;;;;;10.63;6.83;;;;;;;6.23;69.08;99753.72;1737580;81;21189;-60
2021/03/14 10:09:24;;;;;;;9.80;5.80;;;;;;;6.25;68.93;99738.05;1740632;80;21248;-61
2021/03/14 10:11:55;;;;;;;9.20;6.03;;;;;;;6.25;68.83;99737.54;1784030;80;22224;-61
2021/03/14 10:14:22;;;;;;;9.80;6.03;;;;;;;6.21;68.39;99740.30;1734198;80;21411;-62
2021/03/14 10:16:50;;;;;;;9.68;5.80;;;;;;;6.15;68.43;99727.45;1774407;80;21433;-61
2021/03/14 10:19:18;;;;;;;8.83;5.47;;;;;;;6.13;68.57;99730.87;1775105;80;21398;-61
2021/03/14 10:21:46;;;;;;;10.10;6.12;;;;;;;6.14;68.63;99725.76;1745071;80;21374;-61
2021/03/14 10:24:32;;;;;;;9.67;5.67;;;;;;;6.17;68.63;99723.18;1775011;80;22004;-61
2021/03/14 10:27:05;;;;;;;11.25;6.12;;;;;;;6.19;68.58;99721.12;1763870;80;21159;-61
2021/03/14 10:29:39;;;;;;;11.15;6.47;;;;;;;6.21;68.45;99719.06;1768441;80;21176;-60
2021/03/14 10:32:19;;;;;;;11.15;6.83;;;;;;;6.21;68.39;99709.53;1726721;80;21971;-61
2021/03/14 10:34:56;;;;;;;11.53;6.62;;;;;;;6.21;68.30;99705.45;1707536;83;21272;-60
2021/03/14 10:37:35;;;;;;;11.83;6.03;;;;;;;6.23;68.34;99706.11;1728519;83;21149;-61
2021/03/14 10:40:13;;;;;;;15.10;6.92;;;;;;;6.23;68.30;99699.31;1728340;81;21725;-59
2021/03/14 10:42:44;;;;;;;13.30;7.93;;;;;;;6.23;68.29;99706.11;1722925;80;21811;-60
2021/03/14 10:45:19;;;;;;;12.23;7.60;;;;;;;6.23;68.32;99700.67;1785227;80;21842;-61
2021/03/14 10:48:04;;;;;;;12.53;6.97;;;;;;;6.22;68.13;99703.91;1769907;80;21204;-60
2021/03/14 10:50:40;;;;;;;13.32;7.70;;;;;;;6.19;68.07;99700.72;1769502;80;21175;-61
2021/03/14 10:53:15;;;;;;;14.23;6.78;;;;;;;6.19;68.21;99689.84;1748088;80;21875;-61
2021/03/14 10:55:46;;;;;;;10.28;6.53;;;;;;;6.25;68.21;99686.38;1739015;80;21295;-60
2021/03/14 10:58:18;;;;;;;12.53;6.95;;;;;;;6.31;68.01;99684.26;1746202;80;21164;-62
2021/03/14 11:00:49;;;;;;;13.43;7.58;;;;;;;6.31;67.74;99682.38;1766260;80;21165;-59
2021/03/14 11:03:37;;;;;;;15.60;9.05;;;;;;;6.26;67.75;99678.02;1731913;81;21153;-58
2021/03/14 11:06:13;;;;;;;17.98;9.03;;;;;;;6.29;67.79;99670.00;1730763;81;21284;-61
2021/03/14 11:08:54;;;;;;;17.52;8.73;;;;;;;6.35;67.79;99666.53;1730793;81;21610;-60
2021/03/14 11:11:42;;;;;;;12.98;7.72;;;;;;;6.36;67.63;99662.26;1739044;80;21982;-63
2021/03/14 11:14:38;;;;;;;15.50;8.40;;;;;;;6.38;67.63;99668.03;1767475;80;21119;-60
2021/03/14 11:17:15;;;;;;;14.45;7.72;;;;;;;6.36;67.69;99672.30;1732141;82;21312;-60
2021/03/14 11:19:49;;;;;;;13.53;7.15;;;;;;;6.31;67.79;99659.77;1763406;80;21916;-61
2021/03/14 11:22:20;;;;;;;13.62;7.83;;;;;;;6.29;67.92;99658.60;1769966;80;21254;-61
2021/03/14 11:24:50;;;;;;;14.30;7.95;;;;;;;6.30;68.01;99654.85;1769867;81;21142;-62
2021/03/14 11:27:18;;;;;;;14.00;8.25;;;;;;;6.32;68.00;99645.14;1769799;80;21150;-62
2021/03/14 11:29:46;;;;;;;15.25;8.28;;;;;;;6.33;68.05;99646.31;1768651;80;21144;-61
2021/03/14 11:32:19;;;;;;;14.13;8.15;;;;;;;6.36;68.02;99650.53;1737553;81;21340;-59
2021/03/14 11:34:54;;;;;;;12.73;7.72;;;;;;;6.39;68.04;99643.87;1723260;82;21173;-59
2021/03/14 11:37:27;;;;;;;15.60;8.23;;;;;;;6.41;67.98;99637.72;1704741;82;21809;-60
2021/03/14 11:39:56;;;;;;;15.30;9.08;;;;;;;6.41;67.96;99639.92;1736229;82;21920;-59
2021/03/14 11:42:25;;;;;;;15.72;8.80;;;;;;;6.39;67.91;99642.51;1737298;82;21198;-60
2021/03/14 11:44:58;;;;;;;16.05;8.70;;;;;;;6.35;68.04;99640.68;1723319;82;21901;-60
2021/03/14 11:47:27;;;;;;;15.13;8.33;;;;;;;6.34;68.16;99633.03;1737632;82;21568;-60
2021/03/14 11:50:15;;;;;;;17.23;9.00;;;;;;;6.36;68.14;99636.93;1737717;82;21415;-62
2021/03/14 11:52:46;;;;;;;15.72;8.20;;;;;;;6.35;68.04;99634.72;1737596;82;21162;-61
2021/03/14 11:55:13;;;;;;;15.15;7.97;;;;;;;6.32;68.16;99641.91;1737587;82;21268;-62
2021/03/14 11:57:40;;;;;;;15.13;8.15;;;;;;;6.32;68.15;99634.26;1716479;82;21429;-62